sensor_id;sensor_type;location;lat;lon;timestamp;temperature;humidity
22674;DHT22;11504;43.334;21.918;2022-12-07T00:02:03;10.0;100.0
22674;DHT22;11504;43.334;21.918;2022-12-07T00:06:40;10.0;100.0
22674;DHT22;11504;43.334;21.918;2022-12-07T00:11:21;10.0;100.0
22674;DHT22;11504;43.334;21.918;2022-12-07T00:16:00;10.0;100.0
22674;DHT22;11504;43.334;21.918;2022-12-07T00:20:40;9.9;100.0
22674;DHT22;11504;43.334;21.918;2022-12-07T00:25:16;9.9;100.0
22674;DHT22;11504;43.334;21.918;2022-12-07T00:29:53;9.9;100.0
22674;DHT22;11504;43.334;21.918;2022-12-07T00:34:29;9.9;100.0
22674;DHT22;11504;43.334;21.918;2022-12-07T00:39:05;9.9;100.0
22674;DHT22;11504;43.334;21.918;2022-12-07T00:43:42;9.9;100.0
22674;DHT22;11504;43.334;21.918;2022-12-07T00:48:23;10.0;100.0
22674;DHT22;11504;43.334;21.918;2022-12-07T00:53:00;10.0;100.0
22674;DHT22;11504;43.334;21.918;2022-12-07T00:57:36;10.0;100.0
22674;DHT22;11504;43.334;21.918;2022-12-07T01:02:12;10.0;100.0
22674;DHT22;11504;43.334;21.918;2022-12-07T01:06:48;10.0;100.0
22674;DHT22;11504;43.334;21.918;2022-12-07T01:11:27;10.0;100.0
22674;DHT22;11504;43.334;21.918;2022-12-07T01:16:07;10.0;100.0
22674;DHT22;11504;43.334;21.918;2022-12-07T01:20:57;10.1;100.0
22674;DHT22;11504;43.334;21.918;2022-12-07T01:25:41;10.1;100.0
22674;DHT22;11504;43.334;21.918;2022-12-07T01:30:17;10.1;100.0
22674;DHT22;11504;43.334;21.918;2022-12-07T01:34:54;10.1;100.0
22674;DHT22;11504;43.334;21.918;2022-12-07T01:39:30;10.2;100.0
22674;DHT22;11504;43.334;21.918;2022-12-07T01:44:16;10.2;100.0
22674;DHT22;11504;43.334;21.918;2022-12-07T01:48:59;10.2;100.0
22674;DHT22;11504;43.334;21.918;2022-12-07T01:53:38;10.2;100.0
22674;DHT22;11504;43.334;21.918;2022-12-07T01:58:19;10.2;100.0
22674;DHT22;11504;43.334;21.918;2022-12-07T02:03:00;10.2;100.0
22674;DHT22;11504;43.334;21.918;2022-12-07T02:07:42;10.1;100.0
22674;DHT22;11504;43.334;21.918;2022-12-07T02:12:19;10.1;100.0
22674;DHT22;11504;43.334;21.918;2022-12-07T02:17:05;10.1;100.0
22674;DHT22;11504;43.334;21.918;2022-12-07T02:22:11;10.1;100.0
22674;DHT22;11504;43.334;21.918;2022-12-07T02:27:40;10.0;100.0
22674;DHT22;11504;43.334;21.918;2022-12-07T02:32:40;10.0;100.0
22674;DHT22;11504;43.334;21.918;2022-12-07T02:37:36;10.0;100.0
22674;DHT22;11504;43.334;21.918;2022-12-07T02:42:38;10.0;100.0
22674;DHT22;11504;43.334;21.918;2022-12-07T02:47:26;10.0;100.0
22674;DHT22;11504;43.334;21.918;2022-12-07T02:52:09;10.0;100.0
22674;DHT22;11504;43.334;21.918;2022-12-07T02:56:48;10.0;100.0
22674;DHT22;11504;43.334;21.918;2022-12-07T03:01:46;10.1;100.0
22674;DHT22;11504;43.334;21.918;2022-12-07T03:06:53;10.1;100.0
22674;DHT22;11504;43.334;21.918;2022-12-07T03:11:48;10.0;100.0
22674;DHT22;11504;43.334;21.918;2022-12-07T03:16:49;10.0;100.0
22674;DHT22;11504;43.334;21.918;2022-12-07T03:21:40;10.0;100.0
22674;DHT22;11504;43.334;21.918;2022-12-07T03:26:31;10.0;100.0
22674;DHT22;11504;43.334;21.918;2022-12-07T03:31:20;10.0;100.0
22674;DHT22;11504;43.334;21.918;2022-12-07T03:36:10;10.0;100.0
22674;DHT22;11504;43.334;21.918;2022-12-07T03:41:08;10.0;100.0
22674;DHT22;11504;43.334;21.918;2022-12-07T03:46:06;10.0;100.0
22674;DHT22;11504;43.334;21.918;2022-12-07T03:51:17;10.0;100.0
22674;DHT22;11504;43.334;21.918;2022-12-07T03:56:18;10.0;100.0
22674;DHT22;11504;43.334;21.918;2022-12-07T04:00:59;10.1;100.0
22674;DHT22;11504;43.334;21.918;2022-12-07T04:05:37;10.1;100.0
22674;DHT22;11504;43.334;21.918;2022-12-07T04:10:18;10.1;100.0
22674;DHT22;11504;43.334;21.918;2022-12-07T04:14:55;10.1;100.0
22674;DHT22;11504;43.334;21.918;2022-12-07T04:19:32;10.1;100.0
22674;DHT22;11504;43.334;21.918;2022-12-07T04:24:11;10.1;100.0
22674;DHT22;11504;43.334;21.918;2022-12-07T04:28:51;10.0;100.0
22674;DHT22;11504;43.334;21.918;2022-12-07T04:33:26;10.0;100.0
22674;DHT22;11504;43.334;21.918;2022-12-07T04:38:02;10.0;100.0
22674;DHT22;11504;43.334;21.918;2022-12-07T04:42:38;10.0;100.0
22674;DHT22;11504;43.334;21.918;2022-12-07T04:47:14;10.0;100.0
22674;DHT22;11504;43.334;21.918;2022-12-07T04:51:50;9.9;100.0
22674;DHT22;11504;43.334;21.918;2022-12-07T04:56:27;9.9;100.0
22674;DHT22;11504;43.334;21.918;2022-12-07T05:01:03;9.8;100.0
22674;DHT22;11504;43.334;21.918;2022-12-07T05:05:40;9.8;100.0
22674;DHT22;11504;43.334;21.918;2022-12-07T05:10:17;9.9;100.0
22674;DHT22;11504;43.334;21.918;2022-12-07T05:14:53;9.9;100.0
22674;DHT22;11504;43.334;21.918;2022-12-07T05:19:29;9.9;100.0
22674;DHT22;11504;43.334;21.918;2022-12-07T05:24:07;9.9;100.0
22674;DHT22;11504;43.334;21.918;2022-12-07T05:28:50;10.0;100.0
22674;DHT22;11504;43.334;21.918;2022-12-07T05:33:27;10.0;100.0
22674;DHT22;11504;43.334;21.918;2022-12-07T05:38:03;10.0;100.0
22674;DHT22;11504;43.334;21.918;2022-12-07T05:42:39;10.0;100.0
22674;DHT22;11504;43.334;21.918;2022-12-07T05:47:17;10.0;100.0
22674;DHT22;11504;43.334;21.918;2022-12-07T05:51:53;10.0;100.0
22674;DHT22;11504;43.334;21.918;2022-12-07T05:56:30;10.0;100.0
22674;DHT22;11504;43.334;21.918;2022-12-07T06:01:06;10.0;100.0
22674;DHT22;11504;43.334;21.918;2022-12-07T06:05:42;10.0;100.0
22674;DHT22;11504;43.334;21.918;2022-12-07T06:10:18;10.0;100.0
22674;DHT22;11504;43.334;21.918;2022-12-07T06:14:54;10.0;100.0
22674;DHT22;11504;43.334;21.918;2022-12-07T06:19:30;10.0;100.0
22674;DHT22;11504;43.334;21.918;2022-12-07T06:24:07;10.0;100.0
22674;DHT22;11504;43.334;21.918;2022-12-07T06:28:48;10.0;100.0
22674;DHT22;11504;43.334;21.918;2022-12-07T06:33:25;10.0;100.0
22674;DHT22;11504;43.334;21.918;2022-12-07T06:38:01;10.0;100.0
22674;DHT22;11504;43.334;21.918;2022-12-07T06:42:37;10.0;100.0
22674;DHT22;11504;43.334;21.918;2022-12-07T06:47:13;10.0;100.0
22674;DHT22;11504;43.334;21.918;2022-12-07T06:51:49;10.0;100.0
22674;DHT22;11504;43.334;21.918;2022-12-07T06:56:26;10.0;100.0
22674;DHT22;11504;43.334;21.918;2022-12-07T07:01:02;10.0;100.0
22674;DHT22;11504;43.334;21.918;2022-12-07T07:05:43;10.0;100.0
22674;DHT22;11504;43.334;21.918;2022-12-07T07:10:19;10.1;100.0
22674;DHT22;11504;43.334;21.918;2022-12-07T07:14:55;10.1;100.0
22674;DHT22;11504;43.334;21.918;2022-12-07T07:19:31;10.2;100.0
22674;DHT22;11504;43.334;21.918;2022-12-07T07:24:07;10.2;100.0
22674;DHT22;11504;43.334;21.918;2022-12-07T07:28:43;10.3;100.0
22674;DHT22;11504;43.334;21.918;2022-12-07T07:33:18;10.3;100.0
22674;DHT22;11504;43.334;21.918;2022-12-07T07:37:54;10.4;100.0
22674;DHT22;11504;43.334;21.918;2022-12-07T07:42:31;10.4;100.0
22674;DHT22;11504;43.334;21.918;2022-12-07T07:47:07;10.4;100.0
22674;DHT22;11504;43.334;21.918;2022-12-07T07:51:43;10.9;100.0
22674;DHT22;11504;43.334;21.918;2022-12-07T07:56:19;10.9;100.0
22674;DHT22;11504;43.334;21.918;2022-12-07T08:00:55;11.4;100.0
22674;DHT22;11504;43.334;21.918;2022-12-07T08:05:31;11.4;100.0
22674;DHT22;11504;43.334;21.918;2022-12-07T08:10:10;11.6;100.0
22674;DHT22;11504;43.334;21.918;2022-12-07T08:14:49;11.6;100.0
22674;DHT22;11504;43.334;21.918;2022-12-07T08:19:25;11.7;100.0
22674;DHT22;11504;43.334;21.918;2022-12-07T08:24:01;11.7;100.0
22674;DHT22;11504;43.334;21.918;2022-12-07T08:28:39;11.8;100.0
22674;DHT22;11504;43.334;21.918;2022-12-07T08:33:16;11.8;100.0
22674;DHT22;11504;43.334;21.918;2022-12-07T08:37:52;12.0;100.0
22674;DHT22;11504;43.334;21.918;2022-12-07T08:42:28;12.0;100.0
22674;DHT22;11504;43.334;21.918;2022-12-07T08:47:05;12.0;100.0
22674;DHT22;11504;43.334;21.918;2022-12-07T08:51:45;12.0;100.0
22674;DHT22;11504;43.334;21.918;2022-12-07T08:56:23;12.0;100.0
22674;DHT22;11504;43.334;21.918;2022-12-07T09:01:01;12.0;100.0
22674;DHT22;11504;43.334;21.918;2022-12-07T09:05:39;12.0;100.0
22674;DHT22;11504;43.334;21.918;2022-12-07T09:10:16;12.6;100.0
22674;DHT22;11504;43.334;21.918;2022-12-07T09:14:54;12.6;100.0
22674;DHT22;11504;43.334;21.918;2022-12-07T09:19:31;13.2;100.0
22674;DHT22;11504;43.334;21.918;2022-12-07T09:24:07;13.2;100.0
22674;DHT22;11504;43.334;21.918;2022-12-07T09:28:44;13.3;100.0
22674;DHT22;11504;43.334;21.918;2022-12-07T09:33:20;13.3;100.0
22674;DHT22;11504;43.334;21.918;2022-12-07T09:37:56;13.4;100.0
22674;DHT22;11504;43.334;21.918;2022-12-07T09:42:34;13.4;100.0
22674;DHT22;11504;43.334;21.918;2022-12-07T09:47:15;13.4;100.0
22674;DHT22;11504;43.334;21.918;2022-12-07T09:52:00;13.6;100.0
22674;DHT22;11504;43.334;21.918;2022-12-07T09:56:51;13.6;100.0
22674;DHT22;11504;43.334;21.918;2022-12-07T10:01:29;13.8;100.0
22674;DHT22;11504;43.334;21.918;2022-12-07T10:06:07;13.8;100.0
22674;DHT22;11504;43.334;21.918;2022-12-07T10:10:51;13.9;100.0
22674;DHT22;11504;43.334;21.918;2022-12-07T10:15:47;13.9;100.0
22674;DHT22;11504;43.334;21.918;2022-12-07T10:20:27;14.0;100.0
22674;DHT22;11504;43.334;21.918;2022-12-07T10:25:08;14.0;100.0
22674;DHT22;11504;43.334;21.918;2022-12-07T10:29:57;14.6;100.0
22674;DHT22;11504;43.334;21.918;2022-12-07T10:34:36;14.6;100.0
22674;DHT22;11504;43.334;21.918;2022-12-07T10:39:17;15.2;100.0
22674;DHT22;11504;43.334;21.918;2022-12-07T10:43:57;15.2;100.0
22674;DHT22;11504;43.334;21.918;2022-12-07T10:48:37;15.8;100.0
22674;DHT22;11504;43.334;21.918;2022-12-07T10:53:48;15.8;100.0
22674;DHT22;11504;43.334;21.918;2022-12-07T10:58:59;16.5;100.0
22674;DHT22;11504;43.334;21.918;2022-12-07T11:04:26;16.5;100.0
22674;DHT22;11504;43.334;21.918;2022-12-07T11:09:34;16.5;100.0
22674;DHT22;11504;43.334;21.918;2022-12-07T11:14:31;16.5;100.0
22674;DHT22;11504;43.334;21.918;2022-12-07T11:19:28;16.5;100.0
22674;DHT22;11504;43.334;21.918;2022-12-07T11:24:25;16.5;100.0
22674;DHT22;11504;43.334;21.918;2022-12-07T11:29:37;16.2;100.0
22674;DHT22;11504;43.334;21.918;2022-12-07T11:34:57;16.2;100.0
22674;DHT22;11504;43.334;21.918;2022-12-07T11:39:54;15.9;100.0
22674;DHT22;11504;43.334;21.918;2022-12-07T11:44:51;15.9;100.0
22674;DHT22;11504;43.334;21.918;2022-12-07T11:49:54;15.9;100.0
22674;DHT22;11504;43.334;21.918;2022-12-07T11:55:04;15.9;100.0
22674;DHT22;11504;43.334;21.918;2022-12-07T12:00:05;15.9;100.0
22674;DHT22;11504;43.334;21.918;2022-12-07T12:04:55;15.9;100.0
22674;DHT22;11504;43.334;21.918;2022-12-07T12:09:53;15.8;100.0
22674;DHT22;11504;43.334;21.918;2022-12-07T12:14:47;15.8;100.0
22674;DHT22;11504;43.334;21.918;2022-12-07T12:20:00;15.8;100.0
22674;DHT22;11504;43.334;21.918;2022-12-07T12:24:55;15.8;100.0
22674;DHT22;11504;43.334;21.918;2022-12-07T12:29:34;15.8;100.0
22674;DHT22;11504;43.334;21.918;2022-12-07T12:34:31;15.8;100.0
22674;DHT22;11504;43.334;21.918;2022-12-07T12:39:17;15.7;100.0
22674;DHT22;11504;43.334;21.918;2022-12-07T12:43:54;15.7;100.0
22674;DHT22;11504;43.334;21.918;2022-12-07T12:48:30;15.6;100.0
22674;DHT22;11504;43.334;21.918;2022-12-07T12:53:16;15.6;100.0
22674;DHT22;11504;43.334;21.918;2022-12-07T12:58:33;15.6;100.0
22674;DHT22;11504;43.334;21.918;2022-12-07T13:03:23;15.6;100.0
22674;DHT22;11504;43.334;21.918;2022-12-07T13:08:14;15.6;100.0
22674;DHT22;11504;43.334;21.918;2022-12-07T13:13:03;15.6;100.0
22674;DHT22;11504;43.334;21.918;2022-12-07T13:18:34;15.6;100.0
22674;DHT22;11504;43.334;21.918;2022-12-07T13:23:16;15.6;100.0
22674;DHT22;11504;43.334;21.918;2022-12-07T13:28:09;15.7;100.0
22674;DHT22;11504;43.334;21.918;2022-12-07T13:32:55;15.7;100.0
22674;DHT22;11504;43.334;21.918;2022-12-07T13:37:35;15.7;100.0
22674;DHT22;11504;43.334;21.918;2022-12-07T13:42:18;15.8;100.0
22674;DHT22;11504;43.334;21.918;2022-12-07T13:47:12;15.8;100.0
22674;DHT22;11504;43.334;21.918;2022-12-07T13:52:14;15.8;100.0
22674;DHT22;11504;43.334;21.918;2022-12-07T13:56:55;15.8;100.0
22674;DHT22;11504;43.334;21.918;2022-12-07T14:01:32;15.9;100.0
22674;DHT22;11504;43.334;21.918;2022-12-07T14:06:23;15.9;100.0
22674;DHT22;11504;43.334;21.918;2022-12-07T14:11:02;15.8;100.0
22674;DHT22;11504;43.334;21.918;2022-12-07T14:15:38;15.8;100.0
22674;DHT22;11504;43.334;21.918;2022-12-07T14:20:29;15.6;100.0
22674;DHT22;11504;43.334;21.918;2022-12-07T14:25:18;15.6;100.0
22674;DHT22;11504;43.334;21.918;2022-12-07T14:29:59;15.4;100.0
22674;DHT22;11504;43.334;21.918;2022-12-07T14:34:37;15.4;100.0
22674;DHT22;11504;43.334;21.918;2022-12-07T14:39:13;15.2;100.0
22674;DHT22;11504;43.334;21.918;2022-12-07T14:43:49;15.2;100.0
22674;DHT22;11504;43.334;21.918;2022-12-07T14:48:25;15.2;100.0
22674;DHT22;11504;43.334;21.918;2022-12-07T14:53:09;15.2;100.0
22674;DHT22;11504;43.334;21.918;2022-12-07T14:57:52;15.2;100.0
22674;DHT22;11504;43.334;21.918;2022-12-07T15:02:29;15.1;100.0
22674;DHT22;11504;43.334;21.918;2022-12-07T15:07:12;15.1;100.0
22674;DHT22;11504;43.334;21.918;2022-12-07T15:11:54;15.0;100.0
22674;DHT22;11504;43.334;21.918;2022-12-07T15:16:30;15.0;100.0
22674;DHT22;11504;43.334;21.918;2022-12-07T15:21:10;14.9;100.0
22674;DHT22;11504;43.334;21.918;2022-12-07T15:25:49;14.9;100.0
22674;DHT22;11504;43.334;21.918;2022-12-07T15:30:25;14.8;100.0
22674;DHT22;11504;43.334;21.918;2022-12-07T15:35:01;14.8;100.0
22674;DHT22;11504;43.334;21.918;2022-12-07T15:39:37;14.8;100.0
22674;DHT22;11504;43.334;21.918;2022-12-07T15:44:14;14.8;100.0
22674;DHT22;11504;43.334;21.918;2022-12-07T15:48:51;14.8;100.0
22674;DHT22;11504;43.334;21.918;2022-12-07T15:53:27;14.8;100.0
22674;DHT22;11504;43.334;21.918;2022-12-07T15:58:03;14.7;100.0
22674;DHT22;11504;43.334;21.918;2022-12-07T16:02:39;14.7;100.0
22674;DHT22;11504;43.334;21.918;2022-12-07T16:07:15;14.7;100.0
22674;DHT22;11504;43.334;21.918;2022-12-07T16:11:52;14.6;100.0
22674;DHT22;11504;43.334;21.918;2022-12-07T16:16:28;14.6;100.0
22674;DHT22;11504;43.334;21.918;2022-12-07T16:21:05;14.6;100.0
22674;DHT22;11504;43.334;21.918;2022-12-07T16:25:41;14.6;100.0
22674;DHT22;11504;43.334;21.918;2022-12-07T16:30:17;14.6;100.0
22674;DHT22;11504;43.334;21.918;2022-12-07T16:34:54;14.6;100.0
22674;DHT22;11504;43.334;21.918;2022-12-07T16:39:30;14.6;100.0
22674;DHT22;11504;43.334;21.918;2022-12-07T16:44:09;14.6;100.0
22674;DHT22;11504;43.334;21.918;2022-12-07T16:48:49;14.6;100.0
22674;DHT22;11504;43.334;21.918;2022-12-07T16:53:25;14.6;100.0
22674;DHT22;11504;43.334;21.918;2022-12-07T16:58:01;14.6;100.0
22674;DHT22;11504;43.334;21.918;2022-12-07T17:02:37;14.5;100.0
22674;DHT22;11504;43.334;21.918;2022-12-07T17:07:13;14.5;100.0
22674;DHT22;11504;43.334;21.918;2022-12-07T17:11:50;14.6;100.0
22674;DHT22;11504;43.334;21.918;2022-12-07T17:16:27;14.6;100.0
22674;DHT22;11504;43.334;21.918;2022-12-07T17:21:07;14.6;100.0
22674;DHT22;11504;43.334;21.918;2022-12-07T17:25:45;14.6;100.0
22674;DHT22;11504;43.334;21.918;2022-12-07T17:30:22;14.5;100.0
22674;DHT22;11504;43.334;21.918;2022-12-07T17:34:59;14.5;100.0
22674;DHT22;11504;43.334;21.918;2022-12-07T17:39:35;14.4;100.0
22674;DHT22;11504;43.334;21.918;2022-12-07T17:44:12;14.4;100.0
22674;DHT22;11504;43.334;21.918;2022-12-07T17:48:53;14.1;100.0
22674;DHT22;11504;43.334;21.918;2022-12-07T17:53:29;14.1;100.0
22674;DHT22;11504;43.334;21.918;2022-12-07T17:58:05;14.1;100.0
22674;DHT22;11504;43.334;21.918;2022-12-07T18:02:41;13.8;100.0
22674;DHT22;11504;43.334;21.918;2022-12-07T18:07:16;13.8;100.0
22674;DHT22;11504;43.334;21.918;2022-12-07T18:11:52;13.6;100.0
22674;DHT22;11504;43.334;21.918;2022-12-07T18:16:30;13.6;100.0
22674;DHT22;11504;43.334;21.918;2022-12-07T18:21:09;13.4;100.0
22674;DHT22;11504;43.334;21.918;2022-12-07T18:25:48;13.4;100.0
22674;DHT22;11504;43.334;21.918;2022-12-07T18:30:24;13.2;100.0
22674;DHT22;11504;43.334;21.918;2022-12-07T18:35:00;13.2;100.0
22674;DHT22;11504;43.334;21.918;2022-12-07T18:39:36;13.1;100.0
22674;DHT22;11504;43.334;21.918;2022-12-07T18:44:12;13.1;100.0
22674;DHT22;11504;43.334;21.918;2022-12-07T18:48:48;12.9;100.0
22674;DHT22;11504;43.334;21.918;2022-12-07T18:53:24;12.9;100.0
22674;DHT22;11504;43.334;21.918;2022-12-07T18:58:00;12.9;100.0
22674;DHT22;11504;43.334;21.918;2022-12-07T19:02:36;12.7;100.0
22674;DHT22;11504;43.334;21.918;2022-12-07T19:07:12;12.7;100.0
22674;DHT22;11504;43.334;21.918;2022-12-07T19:11:48;12.5;100.0
22674;DHT22;11504;43.334;21.918;2022-12-07T19:16:24;12.5;100.0
22674;DHT22;11504;43.334;21.918;2022-12-07T19:21:02;12.3;100.0
22674;DHT22;11504;43.334;21.918;2022-12-07T19:25:39;12.3;100.0
22674;DHT22;11504;43.334;21.918;2022-12-07T19:30:15;12.2;100.0
22674;DHT22;11504;43.334;21.918;2022-12-07T19:34:52;12.2;100.0
22674;DHT22;11504;43.334;21.918;2022-12-07T19:39:28;12.0;100.0
22674;DHT22;11504;43.334;21.918;2022-12-07T19:44:07;12.0;100.0
22674;DHT22;11504;43.334;21.918;2022-12-07T19:48:50;11.8;100.0
22674;DHT22;11504;43.334;21.918;2022-12-07T19:53:26;11.8;100.0
22674;DHT22;11504;43.334;21.918;2022-12-07T19:58:02;11.8;100.0
22674;DHT22;11504;43.334;21.918;2022-12-07T20:02:38;11.6;100.0
22674;DHT22;11504;43.334;21.918;2022-12-07T20:07:14;11.6;100.0
22674;DHT22;11504;43.334;21.918;2022-12-07T20:11:51;11.4;100.0
22674;DHT22;11504;43.334;21.918;2022-12-07T20:16:27;11.4;100.0
22674;DHT22;11504;43.334;21.918;2022-12-07T20:21:03;11.1;100.0
22674;DHT22;11504;43.334;21.918;2022-12-07T20:25:39;11.1;100.0
22674;DHT22;11504;43.334;21.918;2022-12-07T20:30:15;11.0;100.0
22674;DHT22;11504;43.334;21.918;2022-12-07T20:34:51;11.0;100.0
22674;DHT22;11504;43.334;21.918;2022-12-07T20:39:27;10.9;100.0
22674;DHT22;11504;43.334;21.918;2022-12-07T20:44:04;10.9;100.0
22674;DHT22;11504;43.334;21.918;2022-12-07T20:48:40;10.9;100.0
22674;DHT22;11504;43.334;21.918;2022-12-07T20:53:16;10.9;100.0
22674;DHT22;11504;43.334;21.918;2022-12-07T20:57:52;10.9;100.0
22674;DHT22;11504;43.334;21.918;2022-12-07T21:02:27;10.9;100.0
22674;DHT22;11504;43.334;21.918;2022-12-07T21:07:03;10.9;100.0
22674;DHT22;11504;43.334;21.918;2022-12-07T21:11:39;11.0;100.0
22674;DHT22;11504;43.334;21.918;2022-12-07T21:16:17;11.0;100.0
22674;DHT22;11504;43.334;21.918;2022-12-07T21:21:00;11.0;100.0
22674;DHT22;11504;43.334;21.918;2022-12-07T21:25:36;11.0;100.0
22674;DHT22;11504;43.334;21.918;2022-12-07T21:30:12;11.0;100.0
22674;DHT22;11504;43.334;21.918;2022-12-07T21:34:49;11.0;100.0
22674;DHT22;11504;43.334;21.918;2022-12-07T21:39:25;11.0;100.0
22674;DHT22;11504;43.334;21.918;2022-12-07T21:44:05;11.0;100.0
22674;DHT22;11504;43.334;21.918;2022-12-07T21:48:48;11.0;100.0
22674;DHT22;11504;43.334;21.918;2022-12-07T21:53:26;11.0;100.0
22674;DHT22;11504;43.334;21.918;2022-12-07T21:58:01;11.0;100.0
22674;DHT22;11504;43.334;21.918;2022-12-07T22:02:37;11.0;100.0
22674;DHT22;11504;43.334;21.918;2022-12-07T22:07:13;11.0;100.0
22674;DHT22;11504;43.334;21.918;2022-12-07T22:11:50;11.0;100.0
22674;DHT22;11504;43.334;21.918;2022-12-07T22:16:26;11.0;100.0
22674;DHT22;11504;43.334;21.918;2022-12-07T22:21:04;10.9;100.0
22674;DHT22;11504;43.334;21.918;2022-12-07T22:25:40;10.9;100.0
22674;DHT22;11504;43.334;21.918;2022-12-07T22:30:16;10.9;100.0
22674;DHT22;11504;43.334;21.918;2022-12-07T22:34:53;10.9;100.0
22674;DHT22;11504;43.334;21.918;2022-12-07T22:39:29;10.8;100.0
22674;DHT22;11504;43.334;21.918;2022-12-07T22:44:06;10.8;100.0
22674;DHT22;11504;43.334;21.918;2022-12-07T22:48:44;10.8;100.0
22674;DHT22;11504;43.334;21.918;2022-12-07T22:53:22;10.8;100.0
22674;DHT22;11504;43.334;21.918;2022-12-07T22:57:59;10.8;100.0
22674;DHT22;11504;43.334;21.918;2022-12-07T23:02:38;10.8;100.0
22674;DHT22;11504;43.334;21.918;2022-12-07T23:07:14;10.8;100.0
22674;DHT22;11504;43.334;21.918;2022-12-07T23:11:50;10.8;100.0
22674;DHT22;11504;43.334;21.918;2022-12-07T23:16:26;10.8;100.0
22674;DHT22;11504;43.334;21.918;2022-12-07T23:21:02;10.7;100.0
22674;DHT22;11504;43.334;21.918;2022-12-07T23:25:38;10.7;100.0
22674;DHT22;11504;43.334;21.918;2022-12-07T23:30:14;10.6;100.0
22674;DHT22;11504;43.334;21.918;2022-12-07T23:34:50;10.6;100.0
22674;DHT22;11504;43.334;21.918;2022-12-07T23:39:26;10.4;100.0
22674;DHT22;11504;43.334;21.918;2022-12-07T23:44:02;10.4;100.0
22674;DHT22;11504;43.334;21.918;2022-12-07T23:48:40;10.4;100.0
22674;DHT22;11504;43.334;21.918;2022-12-07T23:53:17;10.4;100.0
22674;DHT22;11504;43.334;21.918;2022-12-07T23:57:53;10.4;100.0
